sensor_id;sensor_type;location;lat;lon;timestamp;P1;durP1;ratioP1;P2;durP2;ratioP2
19087;SDS011;9676;50.916;13.352;2024-01-10T00:00:26;14.97;;;13.37;;
19087;SDS011;9676;50.916;13.352;2024-01-10T00:03:15;14.50;;;13.10;;
19087;SDS011;9676;50.916;13.352;2024-01-10T00:06:06;15.23;;;13.63;;
19087;SDS011;9676;50.916;13.352;2024-01-10T00:08:56;15.20;;;13.63;;
19087;SDS011;9676;50.916;13.352;2024-01-10T00:11:45;14.20;;;12.77;;
19087;SDS011;9676;50.916;13.352;2024-01-10T00:14:34;15.73;;;13.90;;
19087;SDS011;9676;50.916;13.352;2024-01-10T00:17:24;15.07;;;13.10;;
19087;SDS011;9676;50.916;13.352;2024-01-10T00:20:13;15.10;;;13.00;;
19087;SDS011;9676;50.916;13.352;2024-01-10T00:23:04;16.00;;;13.20;;
19087;SDS011;9676;50.916;13.352;2024-01-10T00:25:54;16.00;;;13.80;;
19087;SDS011;9676;50.916;13.352;2024-01-10T00:28:44;15.90;;;13.20;;
19087;SDS011;9676;50.916;13.352;2024-01-10T00:31:34;18.87;;;15.07;;
19087;SDS011;9676;50.916;13.352;2024-01-10T00:34:23;20.23;;;14.90;;
19087;SDS011;9676;50.916;13.352;2024-01-10T00:37:12;18.07;;;15.37;;
19087;SDS011;9676;50.916;13.352;2024-01-10T00:40:04;15.97;;;14.33;;
19087;SDS011;9676;50.916;13.352;2024-01-10T00:42:56;18.60;;;15.00;;
19087;SDS011;9676;50.916;13.352;2024-01-10T00:45:45;15.43;;;13.77;;
19087;SDS011;9676;50.916;13.352;2024-01-10T00:48:35;15.60;;;13.60;;
19087;SDS011;9676;50.916;13.352;2024-01-10T00:51:24;14.27;;;12.60;;
19087;SDS011;9676;50.916;13.352;2024-01-10T00:54:13;15.07;;;13.47;;
19087;SDS011;9676;50.916;13.352;2024-01-10T00:57:04;14.70;;;13.20;;
19087;SDS011;9676;50.916;13.352;2024-01-10T00:59:54;16.60;;;13.80;;
19087;SDS011;9676;50.916;13.352;2024-01-10T01:02:43;15.10;;;13.50;;
19087;SDS011;9676;50.916;13.352;2024-01-10T01:05:32;14.53;;;12.93;;
19087;SDS011;9676;50.916;13.352;2024-01-10T01:08:22;14.83;;;13.33;;
19087;SDS011;9676;50.916;13.352;2024-01-10T01:11:11;16.00;;;13.57;;
19087;SDS011;9676;50.916;13.352;2024-01-10T01:14:03;14.33;;;12.90;;
19087;SDS011;9676;50.916;13.352;2024-01-10T01:16:52;13.63;;;12.27;;
19087;SDS011;9676;50.916;13.352;2024-01-10T01:19:42;13.80;;;12.47;;
19087;SDS011;9676;50.916;13.352;2024-01-10T01:22:31;14.03;;;12.37;;
19087;SDS011;9676;50.916;13.352;2024-01-10T01:25:21;13.57;;;12.33;;
19087;SDS011;9676;50.916;13.352;2024-01-10T01:28:10;12.63;;;11.50;;
19087;SDS011;9676;50.916;13.352;2024-01-10T01:31:01;12.80;;;11.50;;
19087;SDS011;9676;50.916;13.352;2024-01-10T01:33:50;12.67;;;11.57;;
19087;SDS011;9676;50.916;13.352;2024-01-10T01:36:40;12.63;;;11.33;;
19087;SDS011;9676;50.916;13.352;2024-01-10T01:39:29;12.17;;;11.07;;
19087;SDS011;9676;50.916;13.352;2024-01-10T01:42:18;12.20;;;11.00;;
19087;SDS011;9676;50.916;13.352;2024-01-10T01:45:08;12.20;;;11.10;;
19087;SDS011;9676;50.916;13.352;2024-01-10T01:48:00;11.80;;;10.80;;
19087;SDS011;9676;50.916;13.352;2024-01-10T01:50:50;12.03;;;10.83;;
19087;SDS011;9676;50.916;13.352;2024-01-10T01:53:44;11.27;;;10.33;;
19087;SDS011;9676;50.916;13.352;2024-01-10T01:56:35;11.40;;;10.40;;
19087;SDS011;9676;50.916;13.352;2024-01-10T01:59:25;11.27;;;10.37;;
19087;SDS011;9676;50.916;13.352;2024-01-10T02:02:15;11.83;;;10.83;;
19087;SDS011;9676;50.916;13.352;2024-01-10T02:05:08;11.90;;;10.90;;
19087;SDS011;9676;50.916;13.352;2024-01-10T02:07:57;11.57;;;10.57;;
19087;SDS011;9676;50.916;13.352;2024-01-10T02:10:47;12.07;;;11.00;;
19087;SDS011;9676;50.916;13.352;2024-01-10T02:13:37;11.80;;;10.80;;
19087;SDS011;9676;50.916;13.352;2024-01-10T02:16:26;12.07;;;11.07;;
19087;SDS011;9676;50.916;13.352;2024-01-10T02:19:20;11.67;;;10.67;;
19087;SDS011;9676;50.916;13.352;2024-01-10T02:22:12;12.83;;;10.70;;
19087;SDS011;9676;50.916;13.352;2024-01-10T02:25:03;11.60;;;10.60;;
19087;SDS011;9676;50.916;13.352;2024-01-10T02:27:53;12.13;;;10.87;;
19087;SDS011;9676;50.916;13.352;2024-01-10T02:30:43;11.67;;;10.67;;
19087;SDS011;9676;50.916;13.352;2024-01-10T02:33:34;13.43;;;12.13;;
19087;SDS011;9676;50.916;13.352;2024-01-10T02:36:24;11.43;;;10.50;;
19087;SDS011;9676;50.916;13.352;2024-01-10T02:39:14;11.60;;;10.60;;
19087;SDS011;9676;50.916;13.352;2024-01-10T02:42:05;11.53;;;10.60;;
19087;SDS011;9676;50.916;13.352;2024-01-10T02:44:54;12.60;;;11.40;;
19087;SDS011;9676;50.916;13.352;2024-01-10T02:47:44;10.80;;;9.93;;
19087;SDS011;9676;50.916;13.352;2024-01-10T02:50:34;11.77;;;10.80;;
19087;SDS011;9676;50.916;13.352;2024-01-10T02:53:25;12.30;;;11.20;;
19087;SDS011;9676;50.916;13.352;2024-01-10T02:56:14;11.43;;;10.43;;
19087;SDS011;9676;50.916;13.352;2024-01-10T02:59:05;11.53;;;10.53;;
19087;SDS011;9676;50.916;13.352;2024-01-10T03:01:55;11.77;;;10.70;;
19087;SDS011;9676;50.916;13.352;2024-01-10T03:04:44;11.40;;;10.47;;
19087;SDS011;9676;50.916;13.352;2024-01-10T03:07:34;12.00;;;11.00;;
19087;SDS011;9676;50.916;13.352;2024-01-10T03:10:23;11.90;;;10.80;;
19087;SDS011;9676;50.916;13.352;2024-01-10T03:13:12;11.43;;;10.33;;
19087;SDS011;9676;50.916;13.352;2024-01-10T03:16:03;12.17;;;11.07;;
19087;SDS011;9676;50.916;13.352;2024-01-10T03:18:53;11.60;;;10.60;;
19087;SDS011;9676;50.916;13.352;2024-01-10T03:21:43;12.20;;;11.00;;
19087;SDS011;9676;50.916;13.352;2024-01-10T03:24:32;11.97;;;10.87;;
19087;SDS011;9676;50.916;13.352;2024-01-10T03:27:21;11.30;;;10.30;;
19087;SDS011;9676;50.916;13.352;2024-01-10T03:30:11;11.63;;;10.57;;
19087;SDS011;9676;50.916;13.352;2024-01-10T03:33:02;11.57;;;10.57;;
19087;SDS011;9676;50.916;13.352;2024-01-10T03:35:52;11.23;;;10.33;;
19087;SDS011;9676;50.916;13.352;2024-01-10T03:38:42;11.20;;;10.30;;
19087;SDS011;9676;50.916;13.352;2024-01-10T03:41:32;11.83;;;10.77;;
19087;SDS011;9676;50.916;13.352;2024-01-10T03:44:22;10.80;;;9.97;;
19087;SDS011;9676;50.916;13.352;2024-01-10T03:47:11;11.57;;;10.57;;
19087;SDS011;9676;50.916;13.352;2024-01-10T03:50:02;11.30;;;10.40;;
19087;SDS011;9676;50.916;13.352;2024-01-10T03:52:53;11.10;;;10.20;;
19087;SDS011;9676;50.916;13.352;2024-01-10T03:55:42;11.10;;;10.20;;
19087;SDS011;9676;50.916;13.352;2024-01-10T03:58:31;12.00;;;11.00;;
19087;SDS011;9676;50.916;13.352;2024-01-10T04:01:21;11.33;;;10.23;;
19087;SDS011;9676;50.916;13.352;2024-01-10T04:04:12;11.40;;;10.30;;
19087;SDS011;9676;50.916;13.352;2024-01-10T04:07:03;11.20;;;10.33;;
19087;SDS011;9676;50.916;13.352;2024-01-10T04:09:52;11.07;;;10.17;;
19087;SDS011;9676;50.916;13.352;2024-01-10T04:12:42;11.00;;;10.10;;
19087;SDS011;9676;50.916;13.352;2024-01-10T04:15:31;11.20;;;10.30;;
19087;SDS011;9676;50.916;13.352;2024-01-10T04:18:22;11.73;;;10.73;;
19087;SDS011;9676;50.916;13.352;2024-01-10T04:21:11;10.80;;;9.90;;
19087;SDS011;9676;50.916;13.352;2024-01-10T04:24:02;11.60;;;10.50;;
19087;SDS011;9676;50.916;13.352;2024-01-10T04:26:52;11.37;;;10.40;;
19087;SDS011;9676;50.916;13.352;2024-01-10T04:29:41;10.90;;;10.10;;
19087;SDS011;9676;50.916;13.352;2024-01-10T04:32:30;12.03;;;10.93;;
19087;SDS011;9676;50.916;13.352;2024-01-10T04:35:20;11.00;;;10.10;;
19087;SDS011;9676;50.916;13.352;2024-01-10T04:38:10;11.00;;;10.10;;
19087;SDS011;9676;50.916;13.352;2024-01-10T04:41:01;10.93;;;10.10;;
19087;SDS011;9676;50.916;13.352;2024-01-10T04:43:51;11.47;;;10.47;;
19087;SDS011;9676;50.916;13.352;2024-01-10T04:46:40;11.03;;;10.13;;
19087;SDS011;9676;50.916;13.352;2024-01-10T04:49:29;11.30;;;10.40;;
19087;SDS011;9676;50.916;13.352;2024-01-10T04:52:19;11.13;;;10.23;;
19087;SDS011;9676;50.916;13.352;2024-01-10T04:55:08;10.80;;;10.00;;
19087;SDS011;9676;50.916;13.352;2024-01-10T04:58:00;11.00;;;10.00;;
19087;SDS011;9676;50.916;13.352;2024-01-10T05:00:49;11.53;;;10.50;;
19087;SDS011;9676;50.916;13.352;2024-01-10T05:03:39;10.90;;;10.10;;
19087;SDS011;9676;50.916;13.352;2024-01-10T05:06:28;11.20;;;10.20;;
19087;SDS011;9676;50.916;13.352;2024-01-10T05:09:18;11.90;;;10.83;;
19087;SDS011;9676;50.916;13.352;2024-01-10T05:12:07;11.33;;;10.40;;
19087;SDS011;9676;50.916;13.352;2024-01-10T05:14:58;11.00;;;10.17;;
19087;SDS011;9676;50.916;13.352;2024-01-10T05:17:47;10.93;;;10.03;;
19087;SDS011;9676;50.916;13.352;2024-01-10T05:20:37;11.67;;;10.77;;
19087;SDS011;9676;50.916;13.352;2024-01-10T05:23:26;11.30;;;10.40;;
19087;SDS011;9676;50.916;13.352;2024-01-10T05:26:16;11.10;;;10.20;;
19087;SDS011;9676;50.916;13.352;2024-01-10T05:29:05;11.17;;;10.20;;
19087;SDS011;9676;50.916;13.352;2024-01-10T05:31:56;12.87;;;11.77;;
19087;SDS011;9676;50.916;13.352;2024-01-10T05:34:46;11.53;;;10.43;;
19087;SDS011;9676;50.916;13.352;2024-01-10T05:37:36;12.53;;;11.33;;
19087;SDS011;9676;50.916;13.352;2024-01-10T05:40:25;11.37;;;10.37;;
19087;SDS011;9676;50.916;13.352;2024-01-10T05:43:17;11.63;;;10.73;;
19087;SDS011;9676;50.916;13.352;2024-01-10T05:46:06;11.37;;;10.47;;
19087;SDS011;9676;50.916;13.352;2024-01-10T05:48:58;11.80;;;10.80;;
19087;SDS011;9676;50.916;13.352;2024-01-10T05:51:48;11.93;;;10.83;;
19087;SDS011;9676;50.916;13.352;2024-01-10T05:54:38;12.07;;;10.97;;
19087;SDS011;9676;50.916;13.352;2024-01-10T05:57:27;11.57;;;10.50;;
19087;SDS011;9676;50.916;13.352;2024-01-10T06:00:17;12.10;;;11.03;;
19087;SDS011;9676;50.916;13.352;2024-01-10T06:03:08;11.53;;;10.63;;
19087;SDS011;9676;50.916;13.352;2024-01-10T06:05:59;12.00;;;10.80;;
19087;SDS011;9676;50.916;13.352;2024-01-10T06:08:48;12.00;;;11.00;;
19087;SDS011;9676;50.916;13.352;2024-01-10T06:11:40;11.33;;;10.40;;
19087;SDS011;9676;50.916;13.352;2024-01-10T06:14:30;11.37;;;10.47;;
19087;SDS011;9676;50.916;13.352;2024-01-10T06:17:20;11.50;;;10.60;;
19087;SDS011;9676;50.916;13.352;2024-01-10T06:20:10;11.50;;;10.50;;
19087;SDS011;9676;50.916;13.352;2024-01-10T06:23:02;12.07;;;10.93;;
19087;SDS011;9676;50.916;13.352;2024-01-10T06:25:52;11.57;;;10.53;;
19087;SDS011;9676;50.916;13.352;2024-01-10T06:28:42;11.53;;;10.53;;
19087;SDS011;9676;50.916;13.352;2024-01-10T06:31:31;11.43;;;10.50;;
19087;SDS011;9676;50.916;13.352;2024-01-10T06:34:21;11.60;;;10.70;;
19087;SDS011;9676;50.916;13.352;2024-01-10T06:37:10;11.83;;;10.80;;
19087;SDS011;9676;50.916;13.352;2024-01-10T06:40:01;11.50;;;10.60;;
19087;SDS011;9676;50.916;13.352;2024-01-10T06:42:53;12.00;;;10.90;;
19087;SDS011;9676;50.916;13.352;2024-01-10T06:45:42;12.90;;;11.70;;
19087;SDS011;9676;50.916;13.352;2024-01-10T06:48:32;12.00;;;10.90;;
19087;SDS011;9676;50.916;13.352;2024-01-10T06:51:23;12.73;;;11.53;;
19087;SDS011;9676;50.916;13.352;2024-01-10T06:54:14;12.13;;;11.03;;
19087;SDS011;9676;50.916;13.352;2024-01-10T06:57:04;11.90;;;10.90;;
19087;SDS011;9676;50.916;13.352;2024-01-10T06:59:54;11.87;;;10.87;;
19087;SDS011;9676;50.916;13.352;2024-01-10T07:02:44;12.10;;;11.00;;
19087;SDS011;9676;50.916;13.352;2024-01-10T07:05:33;11.63;;;10.47;;
19087;SDS011;9676;50.916;13.352;2024-01-10T07:08:23;12.37;;;11.20;;
19087;SDS011;9676;50.916;13.352;2024-01-10T07:11:13;12.83;;;11.63;;
19087;SDS011;9676;50.916;13.352;2024-01-10T07:14:04;12.70;;;11.60;;
19087;SDS011;9676;50.916;13.352;2024-01-10T07:16:54;12.53;;;11.30;;
19087;SDS011;9676;50.916;13.352;2024-01-10T07:19:44;12.27;;;11.07;;
19087;SDS011;9676;50.916;13.352;2024-01-10T07:22:34;11.83;;;10.80;;
19087;SDS011;9676;50.916;13.352;2024-01-10T07:25:24;12.33;;;11.10;;
19087;SDS011;9676;50.916;13.352;2024-01-10T07:28:13;12.13;;;10.93;;
19087;SDS011;9676;50.916;13.352;2024-01-10T07:31:04;13.20;;;11.80;;
19087;SDS011;9676;50.916;13.352;2024-01-10T07:33:54;12.50;;;11.20;;
19087;SDS011;9676;50.916;13.352;2024-01-10T07:36:44;13.37;;;12.07;;
19087;SDS011;9676;50.916;13.352;2024-01-10T07:39:33;14.37;;;12.00;;
19087;SDS011;9676;50.916;13.352;2024-01-10T07:42:23;12.53;;;11.30;;
19087;SDS011;9676;50.916;13.352;2024-01-10T07:45:12;12.63;;;11.43;;
19087;SDS011;9676;50.916;13.352;2024-01-10T07:48:03;13.00;;;11.70;;
19087;SDS011;9676;50.916;13.352;2024-01-10T07:50:54;13.53;;;12.13;;
19087;SDS011;9676;50.916;13.352;2024-01-10T07:53:43;17.70;;;12.23;;
19087;SDS011;9676;50.916;13.352;2024-01-10T07:56:32;13.67;;;12.20;;
19087;SDS011;9676;50.916;13.352;2024-01-10T07:59:22;13.73;;;12.33;;
19087;SDS011;9676;50.916;13.352;2024-01-10T08:02:12;14.10;;;12.50;;
19087;SDS011;9676;50.916;13.352;2024-01-10T08:05:03;13.47;;;12.00;;
19087;SDS011;9676;50.916;13.352;2024-01-10T08:07:56;14.27;;;12.77;;
19087;SDS011;9676;50.916;13.352;2024-01-10T08:10:46;13.80;;;12.30;;
19087;SDS011;9676;50.916;13.352;2024-01-10T08:13:35;13.57;;;12.10;;
19087;SDS011;9676;50.916;13.352;2024-01-10T08:16:24;13.93;;;12.20;;
19087;SDS011;9676;50.916;13.352;2024-01-10T08:19:14;13.87;;;12.43;;
19087;SDS011;9676;50.916;13.352;2024-01-10T08:22:05;13.57;;;12.17;;
19087;SDS011;9676;50.916;13.352;2024-01-10T08:24:55;13.10;;;11.80;;
19087;SDS011;9676;50.916;13.352;2024-01-10T08:27:44;15.70;;;12.43;;
19087;SDS011;9676;50.916;13.352;2024-01-10T08:30:34;12.90;;;11.70;;
19087;SDS011;9676;50.916;13.352;2024-01-10T08:33:23;12.90;;;11.60;;
19087;SDS011;9676;50.916;13.352;2024-01-10T08:36:13;13.93;;;12.50;;
19087;SDS011;9676;50.916;13.352;2024-01-10T08:39:04;14.40;;;12.90;;
19087;SDS011;9676;50.916;13.352;2024-01-10T08:41:53;14.30;;;12.63;;
19087;SDS011;9676;50.916;13.352;2024-01-10T08:44:43;13.43;;;12.03;;
19087;SDS011;9676;50.916;13.352;2024-01-10T08:47:32;15.47;;;12.77;;
19087;SDS011;9676;50.916;13.352;2024-01-10T08:50:22;15.33;;;13.70;;
19087;SDS011;9676;50.916;13.352;2024-01-10T08:53:11;15.70;;;12.57;;
19087;SDS011;9676;50.916;13.352;2024-01-10T08:56:02;13.00;;;11.70;;
19087;SDS011;9676;50.916;13.352;2024-01-10T08:58:52;13.10;;;11.77;;
19087;SDS011;9676;50.916;13.352;2024-01-10T09:01:43;12.90;;;11.60;;
19087;SDS011;9676;50.916;13.352;2024-01-10T09:04:33;14.13;;;12.03;;
19087;SDS011;9676;50.916;13.352;2024-01-10T09:07:24;12.70;;;11.50;;
19087;SDS011;9676;50.916;13.352;2024-01-10T09:10:14;13.07;;;11.77;;
19087;SDS011;9676;50.916;13.352;2024-01-10T09:13:05;12.93;;;11.63;;
19087;SDS011;9676;50.916;13.352;2024-01-10T09:15:56;12.70;;;11.57;;
19087;SDS011;9676;50.916;13.352;2024-01-10T09:18:46;12.77;;;11.37;;
19087;SDS011;9676;50.916;13.352;2024-01-10T09:21:37;12.20;;;10.97;;
19087;SDS011;9676;50.916;13.352;2024-01-10T09:24:26;13.37;;;11.97;;
19087;SDS011;9676;50.916;13.352;2024-01-10T09:27:17;12.17;;;10.97;;
19087;SDS011;9676;50.916;13.352;2024-01-10T09:30:08;12.07;;;10.90;;
19087;SDS011;9676;50.916;13.352;2024-01-10T09:32:58;12.53;;;11.33;;
19087;SDS011;9676;50.916;13.352;2024-01-10T09:35:48;13.03;;;11.83;;
19087;SDS011;9676;50.916;13.352;2024-01-10T09:38:37;13.37;;;12.07;;
19087;SDS011;9676;50.916;13.352;2024-01-10T09:41:27;12.77;;;11.47;;
19087;SDS011;9676;50.916;13.352;2024-01-10T09:44:19;13.33;;;12.03;;
19087;SDS011;9676;50.916;13.352;2024-01-10T09:47:11;14.87;;;11.83;;
19087;SDS011;9676;50.916;13.352;2024-01-10T09:50:04;13.47;;;12.17;;
19087;SDS011;9676;50.916;13.352;2024-01-10T09:52:58;12.87;;;11.57;;
19087;SDS011;9676;50.916;13.352;2024-01-10T09:55:55;12.40;;;11.20;;
19087;SDS011;9676;50.916;13.352;2024-01-10T09:58:47;13.83;;;12.43;;
19087;SDS011;9676;50.916;13.352;2024-01-10T10:01:38;13.60;;;12.20;;
19087;SDS011;9676;50.916;13.352;2024-01-10T10:04:29;12.87;;;11.30;;
19087;SDS011;9676;50.916;13.352;2024-01-10T10:07:19;12.60;;;11.40;;
19087;SDS011;9676;50.916;13.352;2024-01-10T10:10:09;13.10;;;11.70;;
19087;SDS011;9676;50.916;13.352;2024-01-10T10:12:59;13.40;;;12.00;;
19087;SDS011;9676;50.916;13.352;2024-01-10T10:15:52;14.10;;;11.93;;
19087;SDS011;9676;50.916;13.352;2024-01-10T10:18:47;13.83;;;12.43;;
19087;SDS011;9676;50.916;13.352;2024-01-10T10:21:42;12.60;;;11.30;;
19087;SDS011;9676;50.916;13.352;2024-01-10T10:24:31;12.80;;;11.50;;
19087;SDS011;9676;50.916;13.352;2024-01-10T10:27:21;13.27;;;11.87;;
19087;SDS011;9676;50.916;13.352;2024-01-10T10:30:11;13.73;;;11.03;;
19087;SDS011;9676;50.916;13.352;2024-01-10T10:33:01;15.60;;;11.47;;
19087;SDS011;9676;50.916;13.352;2024-01-10T10:35:52;12.83;;;11.53;;
19087;SDS011;9676;50.916;13.352;2024-01-10T10:38:43;13.80;;;11.80;;
19087;SDS011;9676;50.916;13.352;2024-01-10T10:41:32;13.67;;;12.27;;
19087;SDS011;9676;50.916;13.352;2024-01-10T10:44:24;12.27;;;11.03;;
19087;SDS011;9676;50.916;13.352;2024-01-10T10:47:13;12.57;;;11.37;;
19087;SDS011;9676;50.916;13.352;2024-01-10T10:50:06;12.50;;;11.27;;
19087;SDS011;9676;50.916;13.352;2024-01-10T10:53:02;15.93;;;11.83;;
19087;SDS011;9676;50.916;13.352;2024-01-10T10:55:54;12.87;;;11.47;;
19087;SDS011;9676;50.916;13.352;2024-01-10T10:58:45;12.47;;;11.27;;
19087;SDS011;9676;50.916;13.352;2024-01-10T11:01:36;13.07;;;11.77;;
19087;SDS011;9676;50.916;13.352;2024-01-10T11:04:26;11.63;;;10.43;;
19087;SDS011;9676;50.916;13.352;2024-01-10T11:07:16;12.00;;;10.50;;
19087;SDS011;9676;50.916;13.352;2024-01-10T11:10:08;11.47;;;10.37;;
19087;SDS011;9676;50.916;13.352;2024-01-10T11:13:12;11.80;;;10.63;;
19087;SDS011;9676;50.916;13.352;2024-01-10T11:20:13;11.20;;;10.10;;
19087;SDS011;9676;50.916;13.352;2024-01-10T11:23:17;11.03;;;10.00;;
19087;SDS011;9676;50.916;13.352;2024-01-10T11:26:27;12.30;;;10.43;;
19087;SDS011;9676;50.916;13.352;2024-01-10T11:29:18;11.77;;;10.67;;
19087;SDS011;9676;50.916;13.352;2024-01-10T11:32:12;11.50;;;10.40;;
19087;SDS011;9676;50.916;13.352;2024-01-10T11:35:04;11.70;;;10.60;;
19087;SDS011;9676;50.916;13.352;2024-01-10T11:38:00;11.20;;;10.10;;
19087;SDS011;9676;50.916;13.352;2024-01-10T11:40:53;11.10;;;10.10;;
19087;SDS011;9676;50.916;13.352;2024-01-10T11:43:43;11.20;;;10.20;;
19087;SDS011;9676;50.916;13.352;2024-01-10T11:46:34;11.13;;;10.13;;
19087;SDS011;9676;50.916;13.352;2024-01-10T11:49:24;11.30;;;10.20;;
19087;SDS011;9676;50.916;13.352;2024-01-10T11:52:14;11.33;;;10.23;;
19087;SDS011;9676;50.916;13.352;2024-01-10T11:55:05;10.70;;;9.80;;
19087;SDS011;9676;50.916;13.352;2024-01-10T11:58:03;11.60;;;10.50;;
19087;SDS011;9676;50.916;13.352;2024-01-10T12:00:57;11.33;;;10.20;;
19087;SDS011;9676;50.916;13.352;2024-01-10T12:03:49;11.63;;;10.47;;
19087;SDS011;9676;50.916;13.352;2024-01-10T12:07:01;11.70;;;10.60;;
19087;SDS011;9676;50.916;13.352;2024-01-10T12:09:52;11.50;;;10.40;;
19087;SDS011;9676;50.916;13.352;2024-01-10T12:12:42;11.30;;;10.20;;
19087;SDS011;9676;50.916;13.352;2024-01-10T12:15:31;10.80;;;9.80;;
19087;SDS011;9676;50.916;13.352;2024-01-10T12:18:21;11.27;;;10.30;;
19087;SDS011;9676;50.916;13.352;2024-01-10T12:21:12;11.10;;;10.10;;
19087;SDS011;9676;50.916;13.352;2024-01-10T12:24:03;11.10;;;10.10;;
19087;SDS011;9676;50.916;13.352;2024-01-10T12:26:53;11.23;;;10.27;;
19087;SDS011;9676;50.916;13.352;2024-01-10T12:29:43;12.20;;;11.10;;
19087;SDS011;9676;50.916;13.352;2024-01-10T12:32:36;11.30;;;10.20;;
19087;SDS011;9676;50.916;13.352;2024-01-10T12:35:26;11.50;;;10.50;;
19087;SDS011;9676;50.916;13.352;2024-01-10T12:38:17;13.70;;;10.50;;
19087;SDS011;9676;50.916;13.352;2024-01-10T12:41:06;12.43;;;10.70;;
19087;SDS011;9676;50.916;13.352;2024-01-10T12:43:56;11.70;;;10.60;;
19087;SDS011;9676;50.916;13.352;2024-01-10T12:46:50;12.80;;;11.40;;
19087;SDS011;9676;50.916;13.352;2024-01-10T12:49:41;12.43;;;11.23;;
19087;SDS011;9676;50.916;13.352;2024-01-10T12:52:30;13.47;;;12.17;;
19087;SDS011;9676;50.916;13.352;2024-01-10T12:55:21;13.20;;;11.80;;
19087;SDS011;9676;50.916;13.352;2024-01-10T12:58:14;12.70;;;11.40;;
19087;SDS011;9676;50.916;13.352;2024-01-10T13:01:04;14.00;;;12.50;;
19087;SDS011;9676;50.916;13.352;2024-01-10T13:03:54;13.40;;;12.10;;
19087;SDS011;9676;50.916;13.352;2024-01-10T13:06:43;12.97;;;11.67;;
19087;SDS011;9676;50.916;13.352;2024-01-10T13:09:33;13.67;;;11.80;;
19087;SDS011;9676;50.916;13.352;2024-01-10T13:12:26;13.53;;;11.90;;
19087;SDS011;9676;50.916;13.352;2024-01-10T13:15:15;13.83;;;12.43;;
19087;SDS011;9676;50.916;13.352;2024-01-10T13:18:06;16.30;;;12.53;;
19087;SDS011;9676;50.916;13.352;2024-01-10T13:20:57;14.03;;;12.63;;
19087;SDS011;9676;50.916;13.352;2024-01-10T13:23:47;13.70;;;12.30;;
19087;SDS011;9676;50.916;13.352;2024-01-10T13:26:36;13.60;;;12.20;;
19087;SDS011;9676;50.916;13.352;2024-01-10T13:29:27;13.90;;;12.17;;
19087;SDS011;9676;50.916;13.352;2024-01-10T13:32:16;18.73;;;12.77;;
19087;SDS011;9676;50.916;13.352;2024-01-10T13:35:06;15.20;;;12.93;;
19087;SDS011;9676;50.916;13.352;2024-01-10T13:37:56;17.50;;;14.43;;
19087;SDS011;9676;50.916;13.352;2024-01-10T13:40:46;17.90;;;13.70;;
19087;SDS011;9676;50.916;13.352;2024-01-10T13:43:35;17.40;;;13.33;;
19087;SDS011;9676;50.916;13.352;2024-01-10T13:46:26;15.47;;;13.83;;
19087;SDS011;9676;50.916;13.352;2024-01-10T13:49:15;16.53;;;13.90;;
19087;SDS011;9676;50.916;13.352;2024-01-10T13:52:05;16.83;;;13.77;;
19087;SDS011;9676;50.916;13.352;2024-01-10T13:54:55;14.90;;;13.33;;
19087;SDS011;9676;50.916;13.352;2024-01-10T13:57:44;16.93;;;13.70;;
19087;SDS011;9676;50.916;13.352;2024-01-10T14:00:33;19.73;;;14.90;;
19087;SDS011;9676;50.916;13.352;2024-01-10T14:03:26;15.93;;;13.67;;
19087;SDS011;9676;50.916;13.352;2024-01-10T14:06:20;18.97;;;13.80;;
19087;SDS011;9676;50.916;13.352;2024-01-10T14:09:09;16.38;;;13.52;;
19087;SDS011;9676;50.916;13.352;2024-01-10T14:11:59;16.67;;;13.83;;
19087;SDS011;9676;50.916;13.352;2024-01-10T14:14:49;16.80;;;13.23;;
19087;SDS011;9676;50.916;13.352;2024-01-10T14:17:39;14.50;;;13.00;;
19087;SDS011;9676;50.916;13.352;2024-01-10T14:20:31;15.43;;;12.90;;
19087;SDS011;9676;50.916;13.352;2024-01-10T14:23:21;13.90;;;12.50;;
19087;SDS011;9676;50.916;13.352;2024-01-10T14:26:10;13.50;;;12.00;;
19087;SDS011;9676;50.916;13.352;2024-01-10T14:29:00;14.73;;;13.13;;
19087;SDS011;9676;50.916;13.352;2024-01-10T14:31:49;14.23;;;12.73;;
19087;SDS011;9676;50.916;13.352;2024-01-10T14:34:42;14.33;;;12.27;;
19087;SDS011;9676;50.916;13.352;2024-01-10T14:37:35;13.90;;;12.50;;
19087;SDS011;9676;50.916;13.352;2024-01-10T14:40:25;14.13;;;12.67;;
19087;SDS011;9676;50.916;13.352;2024-01-10T14:43:14;14.90;;;13.10;;
19087;SDS011;9676;50.916;13.352;2024-01-10T14:46:05;13.83;;;12.43;;
19087;SDS011;9676;50.916;13.352;2024-01-10T14:48:54;14.20;;;12.73;;
19087;SDS011;9676;50.916;13.352;2024-01-10T14:51:44;15.60;;;12.63;;
19087;SDS011;9676;50.916;13.352;2024-01-10T14:54:35;13.40;;;12.00;;
19087;SDS011;9676;50.916;13.352;2024-01-10T14:57:25;13.17;;;11.87;;
19087;SDS011;9676;50.916;13.352;2024-01-10T15:00:14;13.67;;;12.27;;
19087;SDS011;9676;50.916;13.352;2024-01-10T15:03:05;15.00;;;12.23;;
19087;SDS011;9676;50.916;13.352;2024-01-10T15:06:10;15.00;;;13.50;;
19087;SDS011;9676;50.916;13.352;2024-01-10T15:08:59;13.13;;;11.83;;
19087;SDS011;9676;50.916;13.352;2024-01-10T15:11:52;14.43;;;12.93;;
19087;SDS011;9676;50.916;13.352;2024-01-10T15:14:43;15.63;;;13.87;;
19087;SDS011;9676;50.916;13.352;2024-01-10T15:17:32;13.80;;;12.47;;
19087;SDS011;9676;50.916;13.352;2024-01-10T15:20:22;14.90;;;13.30;;
19087;SDS011;9676;50.916;13.352;2024-01-10T15:23:12;14.27;;;12.87;;
19087;SDS011;9676;50.916;13.352;2024-01-10T15:26:01;15.17;;;13.20;;
19087;SDS011;9676;50.916;13.352;2024-01-10T15:28:52;14.83;;;13.43;;
19087;SDS011;9676;50.916;13.352;2024-01-10T15:31:42;14.60;;;13.07;;
19087;SDS011;9676;50.916;13.352;2024-01-10T15:34:33;14.50;;;12.97;;
19087;SDS011;9676;50.916;13.352;2024-01-10T15:37:22;13.63;;;12.10;;
19087;SDS011;9676;50.916;13.352;2024-01-10T15:40:12;13.53;;;12.23;;
19087;SDS011;9676;50.916;13.352;2024-01-10T15:43:01;13.63;;;12.23;;
19087;SDS011;9676;50.916;13.352;2024-01-10T15:45:53;13.70;;;12.27;;
19087;SDS011;9676;50.916;13.352;2024-01-10T15:48:42;15.07;;;13.10;;
19087;SDS011;9676;50.916;13.352;2024-01-10T15:51:33;14.10;;;12.10;;
19087;SDS011;9676;50.916;13.352;2024-01-10T15:54:22;14.07;;;12.63;;
19087;SDS011;9676;50.916;13.352;2024-01-10T15:57:12;14.00;;;12.50;;
19087;SDS011;9676;50.916;13.352;2024-01-10T16:00:02;26.10;;;13.60;;
19087;SDS011;9676;50.916;13.352;2024-01-10T16:02:54;16.30;;;12.83;;
19087;SDS011;9676;50.916;13.352;2024-01-10T16:05:44;14.03;;;12.47;;
19087;SDS011;9676;50.916;13.352;2024-01-10T16:08:34;16.77;;;13.50;;
19087;SDS011;9676;50.916;13.352;2024-01-10T16:11:24;18.03;;;14.17;;
19087;SDS011;9676;50.916;13.352;2024-01-10T16:14:13;16.03;;;14.00;;
19087;SDS011;9676;50.916;13.352;2024-01-10T16:17:03;15.60;;;13.50;;
19087;SDS011;9676;50.916;13.352;2024-01-10T16:19:54;15.17;;;13.30;;
19087;SDS011;9676;50.916;13.352;2024-01-10T16:22:43;16.00;;;14.30;;
19087;SDS011;9676;50.916;13.352;2024-01-10T16:25:32;14.37;;;12.83;;
19087;SDS011;9676;50.916;13.352;2024-01-10T16:28:22;15.27;;;13.60;;
19087;SDS011;9676;50.916;13.352;2024-01-10T16:31:13;15.40;;;12.80;;
19087;SDS011;9676;50.916;13.352;2024-01-10T16:34:03;15.50;;;13.20;;
19087;SDS011;9676;50.916;13.352;2024-01-10T16:36:54;15.10;;;13.20;;
19087;SDS011;9676;50.916;13.352;2024-01-10T16:39:43;16.30;;;13.90;;